createdAt,value
2018-11-29T00:00:37.734Z,91.40
2018-11-29T00:03:07.959Z,91.60
2018-11-29T00:05:36.981Z,91.60
2018-11-29T00:08:06.084Z,92.10
2018-11-29T00:10:35.349Z,92.00
2018-11-29T00:13:05.142Z,91.80
2018-11-29T00:15:35.205Z,91.70
2018-11-29T00:18:04.244Z,91.60
2018-11-29T00:20:33.598Z,91.50
2018-11-29T00:23:02.566Z,91.60
2018-11-29T00:25:31.936Z,91.90
2018-11-29T00:28:01.164Z,91.70
2018-11-29T00:30:30.174Z,91.60
2018-11-29T00:32:59.370Z,91.60
2018-11-29T00:35:28.331Z,91.80
2018-11-29T00:37:57.332Z,91.90
2018-11-29T00:40:26.796Z,91.90
2018-11-29T00:42:56.175Z,91.90
2018-11-29T00:45:26.238Z,91.70
2018-11-29T00:47:55.622Z,91.90
2018-11-29T00:50:24.631Z,92.30
2018-11-29T00:52:53.637Z,92.20
2018-11-29T00:55:23.447Z,92.10
2018-11-29T00:57:53.001Z,92.10
2018-11-29T01:00:23.185Z,92.10
2018-11-29T01:02:52.265Z,91.60
2018-11-29T01:05:21.375Z,91.70
2018-11-29T01:07:51.061Z,91.80
2018-11-29T01:10:20.267Z,91.70
2018-11-29T01:12:50.104Z,91.70
2018-11-29T01:15:21.198Z,91.80
2018-11-29T01:17:51.139Z,91.60
2018-11-29T01:20:21.117Z,91.70
2018-11-29T01:22:50.201Z,91.90
2018-11-29T01:25:19.429Z,91.90
2018-11-29T01:27:49.314Z,91.70
2018-11-29T01:30:19.750Z,91.80
2018-11-29T01:32:48.895Z,91.70
2018-11-29T01:35:20.367Z,92.00
2018-11-29T01:37:50.289Z,92.00
2018-11-29T01:40:22.881Z,92.00
2018-11-29T01:42:55.940Z,91.80
2018-11-29T01:45:25.637Z,91.80
2018-11-29T01:47:54.942Z,91.60
2018-11-29T01:50:24.093Z,91.90
2018-11-29T01:52:53.118Z,91.90
2018-11-29T01:55:22.153Z,92.00
2018-11-29T01:57:51.585Z,92.10
2018-11-29T02:00:20.906Z,91.90
2018-11-29T02:02:51.254Z,91.60
2018-11-29T02:05:20.404Z,91.70
2018-11-29T02:07:49.942Z,91.80
2018-11-29T02:10:24.277Z,91.60
2018-11-29T02:12:53.371Z,91.80
2018-11-29T02:15:22.683Z,91.80
2018-11-29T02:17:51.935Z,91.80
2018-11-29T02:20:21.317Z,91.80
2018-11-29T02:22:50.768Z,91.90
2018-11-29T02:25:19.821Z,91.80
2018-11-29T02:27:48.866Z,91.80
2018-11-29T02:30:21.714Z,92.00
2018-11-29T02:32:51.361Z,91.80
2018-11-29T02:35:20.387Z,91.80
2018-11-29T02:37:49.797Z,91.70
2018-11-29T02:40:19.567Z,91.80
2018-11-29T02:42:49.492Z,91.90
2018-11-29T02:45:20.550Z,92.00
2018-11-29T02:47:49.690Z,92.20
2018-11-29T02:50:18.657Z,92.50
2018-11-29T02:52:47.743Z,92.70
2018-11-29T02:55:16.722Z,92.80
2018-11-29T02:57:46.211Z,92.80
2018-11-29T03:00:16.732Z,92.60
2018-11-29T03:02:45.865Z,92.50
2018-11-29T03:05:16.038Z,92.70
2018-11-29T03:07:45.132Z,92.80
2018-11-29T03:10:14.857Z,92.80
2018-11-29T03:12:44.495Z,92.70
2018-11-29T03:15:15.956Z,92.70
2018-11-29T03:17:45.251Z,92.70
2018-11-29T03:20:14.839Z,92.10
2018-11-29T03:22:43.913Z,92.00
2018-11-29T03:25:15.074Z,92.30
2018-11-29T03:27:44.956Z,92.40
2018-11-29T03:30:16.282Z,92.50
2018-11-29T03:32:45.771Z,92.60
2018-11-29T03:35:15.306Z,92.70
2018-11-29T03:37:44.472Z,92.90
2018-11-29T03:40:15.496Z,92.90
2018-11-29T03:42:45.738Z,93.20
2018-11-29T03:45:16.396Z,93.50
2018-11-29T03:47:46.220Z,93.50
2018-11-29T03:50:16.401Z,93.50
2018-11-29T03:52:45.757Z,93.40
2018-11-29T03:55:15.169Z,93.20
2018-11-29T03:57:44.315Z,93.00
2018-11-29T04:00:14.622Z,93.00
2018-11-29T04:02:44.265Z,93.00
2018-11-29T04:05:13.533Z,92.90
2018-11-29T04:07:42.576Z,92.80
2018-11-29T04:10:13.479Z,92.90
2018-11-29T04:12:42.656Z,92.80
2018-11-29T04:15:12.784Z,92.80
2018-11-29T04:17:42.219Z,92.60
2018-11-29T04:20:17.307Z,92.80
2018-11-29T04:22:47.183Z,92.70
2018-11-29T04:25:16.554Z,92.90
2018-11-29T04:27:45.936Z,92.80
2018-11-29T04:30:18.191Z,92.90
2018-11-29T04:32:47.949Z,92.80
2018-11-29T04:35:17.476Z,92.50
2018-11-29T04:37:46.518Z,92.70
2018-11-29T04:40:17.163Z,92.50
2018-11-29T04:42:46.627Z,92.40
2018-11-29T04:45:16.887Z,92.10
2018-11-29T04:47:46.265Z,92.30
2018-11-29T04:50:16.313Z,92.50
2018-11-29T04:52:45.803Z,92.70
2018-11-29T04:55:15.488Z,92.70
2018-11-29T04:57:44.491Z,92.70
2018-11-29T05:00:16.224Z,92.60
2018-11-29T05:02:45.500Z,92.60
2018-11-29T05:05:14.964Z,92.60
2018-11-29T05:07:44.020Z,92.80
2018-11-29T05:10:16.775Z,92.80
2018-11-29T05:12:46.598Z,93.00
2018-11-29T05:15:15.609Z,92.90
2018-11-29T05:17:44.599Z,92.90
2018-11-29T05:20:13.617Z,92.90
2018-11-29T05:22:43.111Z,93.00
2018-11-29T05:25:12.199Z,92.90
2018-11-29T05:27:41.242Z,92.90
2018-11-29T05:30:12.668Z,93.00
2018-11-29T05:32:41.721Z,93.10
2018-11-29T05:35:12.103Z,93.20
2018-11-29T05:37:42.020Z,93.00
2018-11-29T05:40:12.277Z,93.10
2018-11-29T05:42:41.322Z,93.20
2018-11-29T05:45:11.185Z,92.80
2018-11-29T05:47:40.252Z,92.70
2018-11-29T05:50:11.232Z,92.60
2018-11-29T05:52:41.753Z,92.60
2018-11-29T05:55:11.077Z,92.70
2018-11-29T05:57:40.075Z,92.60
2018-11-29T06:00:11.721Z,92.10
2018-11-29T06:02:41.315Z,92.20
2018-11-29T06:05:11.986Z,92.30
2018-11-29T06:07:41.116Z,92.00
2018-11-29T06:10:10.191Z,92.10
2018-11-29T06:12:39.695Z,92.10
2018-11-29T06:15:10.607Z,92.00
2018-11-29T06:17:39.970Z,91.90
2018-11-29T06:20:17.977Z,92.10
2018-11-29T06:22:47.544Z,92.20
2018-11-29T06:25:17.299Z,92.30
2018-11-29T06:27:46.325Z,92.40
2018-11-29T06:30:17.414Z,92.40
2018-11-29T06:32:47.377Z,92.50
2018-11-29T06:35:17.037Z,92.70
2018-11-29T06:37:46.113Z,92.40
2018-11-29T06:40:15.901Z,92.30
2018-11-29T06:42:45.481Z,92.20
2018-11-29T06:45:19.484Z,92.00
2018-11-29T06:47:50.443Z,91.90
2018-11-29T06:50:19.895Z,91.90
2018-11-29T06:52:50.193Z,91.70
2018-11-29T06:55:20.534Z,91.90
2018-11-29T06:57:49.871Z,91.90
2018-11-29T07:00:36.234Z,92.00
2018-11-29T07:03:06.376Z,91.80
2018-11-29T07:05:35.389Z,91.90
2018-11-29T07:08:04.403Z,91.80
2018-11-29T07:10:33.829Z,91.60
2018-11-29T07:13:04.325Z,91.60
2018-11-29T07:15:33.356Z,91.50
2018-11-29T07:18:02.416Z,91.30
2018-11-29T07:20:31.459Z,90.70
2018-11-29T07:23:00.770Z,90.60
2018-11-29T07:25:30.525Z,90.30
2018-11-29T07:27:59.524Z,90.10
2018-11-29T07:30:29.456Z,89.60
2018-11-29T07:32:58.482Z,89.10
2018-11-29T07:35:27.506Z,89.60
2018-11-29T07:37:56.538Z,89.50
2018-11-29T07:40:25.820Z,89.70
2018-11-29T07:42:55.465Z,88.60
2018-11-29T07:45:24.530Z,86.90
2018-11-29T07:47:53.520Z,85.80
2018-11-29T07:50:23.228Z,85.10
2018-11-29T07:52:52.857Z,84.80
2018-11-29T07:55:23.001Z,84.70
2018-11-29T07:57:53.032Z,84.10
2018-11-29T08:00:22.148Z,84.40
2018-11-29T08:02:51.239Z,84.80
2018-11-29T08:05:20.224Z,84.20
2018-11-29T08:07:50.076Z,83.90
2018-11-29T08:10:20.422Z,83.20
2018-11-29T08:12:49.605Z,83.10
2018-11-29T08:15:20.614Z,83.10
2018-11-29T08:17:49.694Z,82.70
2018-11-29T08:20:21.344Z,79.00
2018-11-29T08:22:50.908Z,76.80
2018-11-29T08:25:20.391Z,73.90
2018-11-29T08:27:49.721Z,68.50
2018-11-29T08:30:18.819Z,61.30
2018-11-29T08:32:48.087Z,56.00
2018-11-29T08:35:17.766Z,52.90
2018-11-29T08:37:47.455Z,51.70
2018-11-29T08:40:21.743Z,51.20
2018-11-29T08:42:50.961Z,51.80
2018-11-29T08:45:20.996Z,52.20
2018-11-29T08:47:50.057Z,52.60
2018-11-29T08:50:19.031Z,53.50
2018-11-29T08:52:48.126Z,53.60
2018-11-29T08:55:18.734Z,55.10
2018-11-29T08:57:49.111Z,56.80
2018-11-29T09:00:19.155Z,55.70
2018-11-29T09:02:48.257Z,53.60
2018-11-29T09:05:17.358Z,51.30
2018-11-29T09:07:47.649Z,49.90
2018-11-29T09:10:19.396Z,49.20
2018-11-29T09:12:48.440Z,50.30
2018-11-29T09:15:18.675Z,50.60
2018-11-29T09:17:48.358Z,51.00
2018-11-29T09:20:20.584Z,50.60
2018-11-29T09:22:50.170Z,52.10
2018-11-29T09:25:21.390Z,53.60
2018-11-29T09:27:50.848Z,53.80
2018-11-29T09:30:22.024Z,53.40
2018-11-29T09:32:52.465Z,53.90
2018-11-29T09:35:21.500Z,54.20
2018-11-29T09:37:50.453Z,54.70
2018-11-29T09:40:20.131Z,55.70
2018-11-29T09:42:49.153Z,57.00
2018-11-29T09:45:19.320Z,57.90
2018-11-29T09:47:49.474Z,58.40
2018-11-29T09:50:19.148Z,59.40
2018-11-29T09:52:48.140Z,59.20
2018-11-29T09:55:17.846Z,59.40
2018-11-29T09:57:48.026Z,59.80
2018-11-29T10:00:27.183Z,60.30
2018-11-29T10:02:52.724Z,60.50
2018-11-29T10:05:21.777Z,61.40
2018-11-29T10:07:51.209Z,60.50
2018-11-29T10:10:20.202Z,60.00
2018-11-29T10:12:49.249Z,62.00
2018-11-29T10:15:19.176Z,62.00
2018-11-29T10:17:48.188Z,60.30
2018-11-29T10:20:17.243Z,60.00
2018-11-29T10:22:46.189Z,60.20
2018-11-29T10:25:16.188Z,60.00
2018-11-29T10:27:47.383Z,60.30
2018-11-29T10:30:19.808Z,60.50
2018-11-29T10:32:48.911Z,58.70
2018-11-29T10:35:18.027Z,56.50
2018-11-29T10:37:47.109Z,55.80
2018-11-29T10:40:16.732Z,57.50
2018-11-29T10:42:45.946Z,55.30
2018-11-29T10:45:17.248Z,57.60
2018-11-29T10:47:52.244Z,54.50
2018-11-29T10:50:17.437Z,53.20
2018-11-29T10:52:46.412Z,53.80
2018-11-29T10:55:18.354Z,53.50
2018-11-29T10:57:47.995Z,51.60
2018-11-29T11:00:27.678Z,52.70
2018-11-29T11:03:06.184Z,52.30
2018-11-29T11:05:35.560Z,50.50
2018-11-29T11:08:08.553Z,48.60
2018-11-29T11:10:34.318Z,49.70
2018-11-29T11:13:03.271Z,50.00
2018-11-29T11:15:32.282Z,52.30
2018-11-29T11:18:01.646Z,54.30
2018-11-29T11:20:30.637Z,54.80
2018-11-29T11:22:59.638Z,56.90
2018-11-29T11:25:28.864Z,55.60
2018-11-29T11:27:58.549Z,56.30
2018-11-29T11:30:27.715Z,57.40
2018-11-29T11:32:56.882Z,57.90
2018-11-29T11:35:28.609Z,57.40
2018-11-29T11:37:57.619Z,56.90
2018-11-29T11:40:26.914Z,54.40
2018-11-29T11:42:55.909Z,54.80
2018-11-29T11:45:25.399Z,51.90
2018-11-29T11:47:54.746Z,53.20
2018-11-29T11:50:24.584Z,54.30
2018-11-29T11:52:55.084Z,52.80
2018-11-29T11:55:30.048Z,53.40
2018-11-29T11:57:53.550Z,53.60
2018-11-29T12:00:25.512Z,53.80
2018-11-29T12:02:59.973Z,54.20
2018-11-29T12:05:29.047Z,53.20
2018-11-29T12:07:58.041Z,54.40
2018-11-29T12:10:27.029Z,53.50
2018-11-29T12:12:56.086Z,54.50
2018-11-29T12:15:25.520Z,55.60
2018-11-29T12:17:54.567Z,55.70
2018-11-29T12:20:24.073Z,57.10
2018-11-29T12:22:53.058Z,55.60
2018-11-29T12:25:23.331Z,57.00
2018-11-29T12:27:52.662Z,56.50
2018-11-29T12:30:26.321Z,57.20
2018-11-29T12:32:56.841Z,57.60
2018-11-29T12:35:26.260Z,57.50
2018-11-29T12:37:55.946Z,56.70
2018-11-29T12:40:25.698Z,57.20
2018-11-29T12:42:54.676Z,57.00
2018-11-29T12:45:23.680Z,57.60
2018-11-29T12:47:52.953Z,56.50
2018-11-29T12:50:25.206Z,56.60
2018-11-29T12:52:54.343Z,57.30
2018-11-29T12:55:24.477Z,57.80
2018-11-29T13:00:24.856Z,58.90
2018-11-29T13:02:58.042Z,59.20
2018-11-29T13:03:02.505Z,59.10
2018-11-29T13:05:27.823Z,58.30
2018-11-29T13:07:58.073Z,58.20
2018-11-29T13:10:27.832Z,58.20
2018-11-29T13:12:56.880Z,57.80
2018-11-29T13:15:33.343Z,59.10
2018-11-29T13:18:03.916Z,60.20
2018-11-29T13:20:32.936Z,61.30
2018-11-29T13:23:02.421Z,62.60
2018-11-29T13:25:31.453Z,63.90
2018-11-29T13:28:01.198Z,64.60
2018-11-29T13:30:30.189Z,66.40
2018-11-29T13:32:59.773Z,67.00
2018-11-29T13:35:32.301Z,66.90
2018-11-29T13:38:03.540Z,68.00
2018-11-29T13:40:32.538Z,66.70
2018-11-29T13:43:02.656Z,67.30
2018-11-29T13:45:31.675Z,68.30
2018-11-29T13:48:01.114Z,69.00
2018-11-29T13:50:30.137Z,69.50
2018-11-29T13:52:59.501Z,68.50
2018-11-29T13:55:29.096Z,69.80
2018-11-29T13:57:58.432Z,69.40
2018-11-29T14:00:27.817Z,70.20
2018-11-29T14:03:02.798Z,70.70
2018-11-29T14:05:31.771Z,70.90
2018-11-29T14:08:01.254Z,72.40
2018-11-29T14:10:30.140Z,72.20
2018-11-29T14:12:59.386Z,72.20
2018-11-29T14:15:28.985Z,73.40
2018-11-29T14:17:58.023Z,73.90
2018-11-29T14:20:27.025Z,73.30
2018-11-29T14:22:56.340Z,73.40
2018-11-29T14:25:25.337Z,73.60
2018-11-29T14:27:56.727Z,74.40
2018-11-29T14:30:27.845Z,75.10
2018-11-29T14:32:59.122Z,75.00
2018-11-29T14:35:28.120Z,75.00
2018-11-29T14:37:57.578Z,75.30
2018-11-29T14:40:27.947Z,76.30
2018-11-29T14:42:56.972Z,75.60
2018-11-29T14:45:26.908Z,76.70
2018-11-29T14:47:56.892Z,77.40
2018-11-29T14:50:31.351Z,77.10
2018-11-29T14:53:00.630Z,77.10
2018-11-29T14:55:29.606Z,77.60
2018-11-29T14:57:58.734Z,78.30
2018-11-29T15:00:27.770Z,78.20
2018-11-29T15:02:57.983Z,79.30
2018-11-29T15:05:28.256Z,78.90
2018-11-29T15:07:57.268Z,80.10
2018-11-29T15:10:26.587Z,79.60
2018-11-29T15:12:56.477Z,79.50
2018-11-29T15:15:25.481Z,79.80
2018-11-29T15:17:54.846Z,79.60
2018-11-29T15:20:56.487Z,80.00
2018-11-29T15:23:25.751Z,80.30
2018-11-29T15:25:55.059Z,80.70
2018-11-29T15:28:24.153Z,81.00
2018-11-29T15:30:53.282Z,81.30
2018-11-29T15:33:22.441Z,81.80
2018-11-29T15:35:51.766Z,82.30
2018-11-29T15:38:20.800Z,82.10
2018-11-29T15:40:50.088Z,81.80
2018-11-29T15:43:19.522Z,81.90
2018-11-29T15:45:48.534Z,82.10
2018-11-29T15:48:17.792Z,81.40
2018-11-29T15:50:46.748Z,81.90
2018-11-29T15:53:15.824Z,81.90
2018-11-29T15:55:44.815Z,82.90
2018-11-29T15:58:13.805Z,82.60
2018-11-29T16:00:42.870Z,82.70
2018-11-29T16:03:11.851Z,83.30
2018-11-29T16:05:42.016Z,83.30
2018-11-29T16:08:11.045Z,84.50
2018-11-29T16:10:40.307Z,83.40
2018-11-29T16:13:09.279Z,84.00
2018-11-29T16:15:38.607Z,83.90
2018-11-29T16:18:08.764Z,83.50
2018-11-29T16:20:38.832Z,83.70
2018-11-29T16:23:09.185Z,84.00
2018-11-29T16:25:38.149Z,84.00
2018-11-29T16:28:08.220Z,84.20
2018-11-29T16:30:41.056Z,83.00
2018-11-29T16:33:13.058Z,83.40
2018-11-29T16:35:42.036Z,84.10
2018-11-29T16:38:11.033Z,84.30
2018-11-29T16:40:39.996Z,84.10
2018-11-29T16:43:08.992Z,84.80
2018-11-29T16:45:37.968Z,84.30
2018-11-29T16:48:07.260Z,85.00
2018-11-29T16:50:39.633Z,84.00
2018-11-29T16:53:09.183Z,84.50
2018-11-29T16:55:39.218Z,85.10
2018-11-29T16:58:10.793Z,84.60
2018-11-29T17:00:39.923Z,84.50
2018-11-29T17:03:09.336Z,84.60
2018-11-29T17:05:38.731Z,84.80
2018-11-29T17:08:07.988Z,85.30
2018-11-29T17:10:37.381Z,86.00
2018-11-29T17:13:12.311Z,85.70
2018-11-29T17:15:41.729Z,85.50
2018-11-29T17:18:10.772Z,85.30
2018-11-29T17:20:39.781Z,85.20
2018-11-29T17:23:09.935Z,84.70
2018-11-29T17:25:38.967Z,84.40
2018-11-29T17:28:08.154Z,84.40
2018-11-29T17:30:38.311Z,85.10
2018-11-29T17:33:08.466Z,85.00
2018-11-29T17:35:37.431Z,85.00
2018-11-29T17:38:06.731Z,85.00
2018-11-29T17:40:37.137Z,84.90
2018-11-29T17:43:07.152Z,85.00
2018-11-29T17:45:36.286Z,85.70
2018-11-29T17:48:08.504Z,85.00
2018-11-29T17:50:39.109Z,84.90
2018-11-29T17:53:10.821Z,84.60
2018-11-29T17:55:40.176Z,85.30
2018-11-29T17:58:11.687Z,85.50
2018-11-29T18:00:41.221Z,85.60
2018-11-29T18:03:10.944Z,85.50
2018-11-29T18:05:39.960Z,85.40
2018-11-29T18:08:09.635Z,85.40
2018-11-29T18:10:40.431Z,85.40
2018-11-29T18:13:15.172Z,85.70
2018-11-29T18:15:44.278Z,86.30
2018-11-29T18:18:14.676Z,86.80
2018-11-29T18:20:42.635Z,86.70
2018-11-29T18:23:13.352Z,87.00
2018-11-29T18:25:42.530Z,87.00
2018-11-29T18:28:12.345Z,87.20
2018-11-29T18:30:41.365Z,87.30
2018-11-29T18:35:39.088Z,86.40
2018-11-29T18:38:08.242Z,87.40
2018-11-29T18:40:37.310Z,87.70
2018-11-29T18:43:08.109Z,87.70
2018-11-29T18:45:37.821Z,87.80
2018-11-29T18:48:07.346Z,86.60
2018-11-29T18:50:36.426Z,86.70
2018-11-29T18:53:06.145Z,86.40
2018-11-29T18:55:35.314Z,86.70
2018-11-29T18:58:05.100Z,87.30
2018-11-29T19:00:35.312Z,87.50
2018-11-29T19:03:05.126Z,87.60
2018-11-29T19:05:35.516Z,86.90
2018-11-29T19:08:04.254Z,87.40
2018-11-29T19:10:33.460Z,87.80
2018-11-29T19:13:11.373Z,88.40
2018-11-29T19:15:40.696Z,88.20
2018-11-29T19:18:11.024Z,88.80
2018-11-29T19:20:39.679Z,88.90
2018-11-29T19:23:08.690Z,88.20
2018-11-29T19:25:38.669Z,88.10
2018-11-29T19:28:08.414Z,88.30
2018-11-29T19:30:38.258Z,87.70
2018-11-29T19:33:23.508Z,88.30
2018-11-29T19:35:53.801Z,88.40
2018-11-29T19:38:23.139Z,88.30
2018-11-29T19:40:52.171Z,88.10
2018-11-29T19:43:21.191Z,88.00
2018-11-29T19:45:51.013Z,87.60
2018-11-29T19:48:20.635Z,87.90
2018-11-29T19:50:49.574Z,88.00
2018-11-29T19:53:22.011Z,88.30
2018-11-29T19:55:53.080Z,88.20
2018-11-29T19:58:22.123Z,87.60
2018-11-29T20:00:51.145Z,87.30
2018-11-29T20:03:20.156Z,87.30
2018-11-29T20:05:49.564Z,87.30
2018-11-29T20:08:18.565Z,87.20
2018-11-29T20:10:48.110Z,87.40
2018-11-29T20:13:17.817Z,87.30
2018-11-29T20:18:49.101Z,87.60
2018-11-29T20:21:18.808Z,87.60
2018-11-29T20:23:48.045Z,87.90
2018-11-29T20:26:17.746Z,88.00
2018-11-29T20:28:47.237Z,88.40
2018-11-29T20:31:17.187Z,88.40
2018-11-29T20:33:46.466Z,87.50
2018-11-29T20:36:15.469Z,87.40
2018-11-29T20:38:44.518Z,88.10
2018-11-29T20:41:13.776Z,87.90
2018-11-29T20:43:42.886Z,87.40
2018-11-29T20:46:12.155Z,86.70
2018-11-29T20:48:41.125Z,87.20
2018-11-29T20:51:10.517Z,86.70
2018-11-29T20:53:40.430Z,87.20
2018-11-29T20:56:12.258Z,87.70
2018-11-29T20:58:43.556Z,86.80
2018-11-29T21:01:13.550Z,87.20
2018-11-29T21:03:42.692Z,87.40
2018-11-29T21:06:13.013Z,86.90
2018-11-29T21:08:42.001Z,87.40
2018-11-29T21:11:11.016Z,87.20
2018-11-29T21:13:40.105Z,87.50
2018-11-29T21:16:09.430Z,87.90
2018-11-29T21:18:38.405Z,87.30
2018-11-29T21:21:07.396Z,87.50
2018-11-29T21:23:36.692Z,87.70
2018-11-29T21:26:06.142Z,87.40
2018-11-29T21:28:35.101Z,87.70
2018-11-29T21:31:04.131Z,87.20
2018-11-29T21:33:33.157Z,86.90
2018-11-29T21:36:02.152Z,86.60
2018-11-29T21:38:31.156Z,87.20
2018-11-29T21:41:02.764Z,87.40
2018-11-29T21:43:31.798Z,87.60
2018-11-29T21:46:00.836Z,87.90
2018-11-29T21:48:30.848Z,88.00
2018-11-29T21:50:59.873Z,87.50
2018-11-29T21:53:28.917Z,87.40
2018-11-29T21:55:58.375Z,88.00
2018-11-29T21:58:27.363Z,88.10
2018-11-29T22:00:56.689Z,88.60
2018-11-29T22:03:25.635Z,86.80
2018-11-29T22:05:54.637Z,87.40
2018-11-29T22:08:23.617Z,87.70
2018-11-29T22:10:53.208Z,88.10
2018-11-29T22:13:22.189Z,87.60
2018-11-29T22:15:51.650Z,87.70
2018-11-29T22:18:23.305Z,88.20
2018-11-29T22:20:57.533Z,88.70
2018-11-29T22:23:26.603Z,88.50
2018-11-29T22:25:56.905Z,89.40
2018-11-29T22:28:26.023Z,88.80
2018-11-29T22:30:55.471Z,87.50
2018-11-29T22:33:24.755Z,88.00
2018-11-29T22:35:53.770Z,88.10
2018-11-29T22:38:22.736Z,88.60
2018-11-29T22:40:51.991Z,88.90
2018-11-29T22:43:20.853Z,88.80
2018-11-29T22:45:49.844Z,88.60
2018-11-29T22:48:18.885Z,88.90
2018-11-29T22:50:47.907Z,89.00
2018-11-29T22:53:16.920Z,89.10
2018-11-29T22:55:46.925Z,87.90
2018-11-29T22:58:15.990Z,88.50
2018-11-29T23:00:51.513Z,88.80
2018-11-29T23:03:21.269Z,88.60
2018-11-29T23:05:50.300Z,88.20
2018-11-29T23:08:19.652Z,87.90
2018-11-29T23:10:49.614Z,88.20
2018-11-29T23:13:19.000Z,88.30
2018-11-29T23:15:48.042Z,88.40
2018-11-29T23:18:17.038Z,87.90
2018-11-29T23:20:46.046Z,87.70
2018-11-29T23:23:15.249Z,87.60
2018-11-29T23:25:44.287Z,87.90
2018-11-29T23:28:13.286Z,88.00
2018-11-29T23:30:42.708Z,88.50
2018-11-29T23:33:11.735Z,87.90
2018-11-29T23:35:41.095Z,88.20
2018-11-29T23:38:10.205Z,88.20
2018-11-29T23:40:39.290Z,88.40
2018-11-29T23:43:08.251Z,88.00
2018-11-29T23:45:37.257Z,87.20
2018-11-29T23:48:06.320Z,87.20
2018-11-29T23:50:36.214Z,87.10
2018-11-29T23:53:05.676Z,87.40
2018-11-29T23:55:34.699Z,87.30
2018-11-29T23:58:03.753Z,87.10
